createdAt,value
2019-03-30T00:00:38.914Z,17.12
2019-03-30T00:03:08.580Z,17.12
2019-03-30T00:05:38.247Z,13.03
2019-03-30T00:08:07.938Z,17.02
2019-03-30T00:10:37.626Z,14.23
2019-03-30T00:13:07.330Z,16.82
2019-03-30T00:15:36.991Z,16.80
2019-03-30T00:18:06.677Z,17.02
2019-03-30T00:20:36.385Z,16.48
2019-03-30T00:23:06.060Z,17.55
2019-03-30T00:25:35.791Z,14.07
2019-03-30T00:28:05.457Z,16.07
2019-03-30T00:30:36.698Z,14.65
2019-03-30T00:33:06.368Z,14.80
2019-03-30T00:35:36.012Z,18.67
2019-03-30T00:38:05.674Z,16.32
2019-03-30T00:40:35.320Z,16.05
2019-03-30T00:43:04.996Z,16.00
2019-03-30T00:45:34.659Z,16.87
2019-03-30T00:48:04.346Z,16.02
2019-03-30T00:50:35.546Z,14.33
2019-03-30T00:53:05.201Z,18.98
2019-03-30T00:55:34.931Z,17.32
2019-03-30T00:58:04.617Z,14.95
2019-03-30T01:00:34.283Z,18.05
2019-03-30T01:03:03.967Z,16.42
2019-03-30T01:05:33.626Z,12.75
2019-03-30T01:08:03.321Z,14.78
2019-03-30T01:10:32.965Z,15.93
2019-03-30T01:13:02.704Z,14.20
2019-03-30T01:15:32.342Z,15.72
2019-03-30T01:18:02.022Z,20.68
2019-03-30T01:20:31.695Z,15.80
2019-03-30T01:23:01.621Z,15.63
2019-03-30T01:25:31.255Z,16.05
2019-03-30T01:28:00.925Z,16.10
2019-03-30T01:30:30.563Z,14.53
2019-03-30T01:33:00.329Z,16.70
2019-03-30T01:35:29.996Z,15.60
2019-03-30T01:37:59.657Z,13.03
2019-03-30T01:40:29.333Z,15.85
2019-03-30T01:42:58.999Z,18.60
2019-03-30T01:45:29.977Z,18.55
2019-03-30T01:47:59.633Z,14.47
2019-03-30T01:50:29.301Z,15.63
2019-03-30T01:52:58.997Z,15.95
2019-03-30T01:55:28.635Z,16.27
2019-03-30T01:57:58.313Z,15.60
2019-03-30T02:00:27.967Z,15.93
2019-03-30T02:02:57.643Z,17.12
2019-03-30T02:05:27.307Z,17.80
2019-03-30T02:07:56.939Z,15.03
2019-03-30T02:10:40.964Z,13.25
2019-03-30T02:13:10.674Z,15.68
2019-03-30T02:15:40.358Z,17.57
2019-03-30T02:18:10.015Z,14.13
2019-03-30T02:20:41.286Z,15.88
2019-03-30T02:23:11.428Z,15.88
2019-03-30T02:25:41.120Z,16.27
2019-03-30T02:28:11.074Z,15.25
2019-03-30T02:30:40.862Z,14.43
2019-03-30T02:33:10.493Z,16.90
2019-03-30T02:35:40.150Z,15.28
2019-03-30T02:38:09.775Z,15.68
2019-03-30T02:40:39.501Z,13.93
2019-03-30T02:43:09.155Z,17.23
2019-03-30T02:45:38.792Z,14.63
2019-03-30T02:48:08.449Z,14.47
2019-03-30T02:50:49.159Z,18.27
2019-03-30T02:53:09.497Z,17.37
2019-03-30T02:55:39.162Z,14.70
2019-03-30T02:58:08.794Z,13.75
2019-03-30T03:00:38.528Z,16.20
2019-03-30T03:03:08.209Z,16.75
2019-03-30T03:05:37.878Z,14.93
2019-03-30T03:08:07.519Z,14.63
2019-03-30T03:10:37.225Z,16.40
2019-03-30T03:13:06.882Z,17.85
2019-03-30T03:15:36.532Z,12.73
2019-03-30T03:18:06.165Z,18.05
2019-03-30T03:20:37.467Z,20.00
2019-03-30T03:23:07.122Z,18.62
2019-03-30T03:25:36.861Z,14.85
2019-03-30T03:28:06.508Z,14.95
2019-03-30T03:30:36.177Z,17.57
2019-03-30T03:33:05.828Z,15.32
2019-03-30T03:35:38.296Z,17.87
2019-03-30T03:38:07.929Z,15.10
2019-03-30T03:40:37.696Z,19.33
2019-03-30T03:43:07.420Z,17.00
2019-03-30T03:45:37.060Z,17.30
2019-03-30T03:48:06.713Z,15.48
2019-03-30T03:50:46.738Z,17.77
2019-03-30T03:53:37.397Z,15.68
2019-03-30T03:56:27.305Z,17.05
2019-03-30T03:58:58.918Z,19.05
2019-03-30T04:01:30.003Z,15.32
2019-03-30T04:04:02.948Z,13.83
2019-03-30T04:06:34.136Z,13.93
2019-03-30T04:09:24.596Z,18.80
2019-03-30T04:12:14.474Z,19.32
2019-03-30T04:14:49.393Z,13.83
2019-03-30T04:17:19.048Z,15.40
2019-03-30T04:19:48.726Z,17.05
2019-03-30T04:22:18.405Z,15.93
2019-03-30T04:24:48.051Z,17.17
2019-03-30T04:27:17.721Z,18.80
2019-03-30T04:29:47.371Z,17.12
2019-03-30T04:32:17.064Z,18.60
2019-03-30T04:34:46.701Z,19.60
2019-03-30T04:37:16.395Z,18.50
2019-03-30T04:39:46.090Z,20.68
2019-03-30T04:42:15.709Z,18.27
2019-03-30T04:44:45.341Z,19.20
2019-03-30T04:47:14.992Z,15.43
2019-03-30T04:49:44.662Z,17.35
2019-03-30T04:52:14.316Z,15.23
2019-03-30T04:54:44.034Z,20.05
2019-03-30T04:57:13.698Z,14.58
2019-03-30T04:59:43.352Z,17.52
2019-03-30T05:02:13.009Z,18.75
2019-03-30T05:04:42.712Z,17.15
2019-03-30T05:07:12.391Z,18.92
2019-03-30T05:09:42.092Z,20.05
2019-03-30T05:12:11.747Z,15.88
2019-03-30T05:14:41.411Z,15.40
2019-03-30T05:17:11.066Z,15.45
2019-03-30T05:19:40.834Z,16.57
2019-03-30T05:22:12.962Z,16.85
2019-03-30T05:24:41.870Z,17.07
2019-03-30T05:27:11.524Z,17.25
2019-03-30T05:29:41.160Z,15.50
2019-03-30T05:32:10.810Z,15.50
2019-03-30T05:34:40.511Z,17.98
2019-03-30T05:37:10.153Z,16.07
2019-03-30T05:39:39.822Z,14.23
2019-03-30T05:42:09.494Z,12.45
2019-03-30T05:44:39.159Z,16.55
2019-03-30T05:47:08.853Z,13.75
2019-03-30T05:49:38.537Z,12.18
2019-03-30T05:52:08.197Z,10.93
2019-03-30T05:54:37.851Z,18.62
2019-03-30T05:57:07.531Z,13.13
2019-03-30T05:59:37.183Z,13.58
2019-03-30T06:02:06.851Z,14.60
2019-03-30T06:04:36.500Z,14.45
2019-03-30T06:07:06.220Z,12.00
2019-03-30T06:09:35.820Z,13.58
2019-03-30T06:12:05.513Z,15.40
2019-03-30T06:14:35.158Z,27.10
2019-03-30T06:17:04.824Z,56.73
2019-03-30T06:19:34.480Z,34.53
2019-03-30T06:22:04.344Z,23.83
2019-03-30T06:24:34.030Z,19.15
2019-03-30T06:27:03.708Z,17.48
2019-03-30T06:29:33.334Z,18.55
2019-03-30T06:32:03.007Z,17.98
2019-03-30T06:34:32.803Z,17.10
2019-03-30T06:37:02.495Z,23.52
2019-03-30T06:39:32.186Z,23.10
2019-03-30T06:42:01.986Z,34.70
2019-03-30T06:44:31.688Z,36.00
2019-03-30T06:47:01.355Z,38.67
2019-03-30T06:49:31.013Z,35.52
2019-03-30T06:52:00.677Z,34.05
2019-03-30T06:54:30.383Z,35.48
2019-03-30T06:57:00.061Z,28.47
2019-03-30T06:59:29.751Z,24.77
2019-03-30T07:01:59.456Z,20.43
2019-03-30T07:04:29.217Z,18.80
2019-03-30T07:06:59.192Z,18.35
2019-03-30T07:09:31.960Z,21.80
2019-03-30T07:12:03.087Z,26.45
2019-03-30T07:14:35.329Z,22.05
2019-03-30T07:17:06.797Z,24.25
2019-03-30T07:19:39.435Z,22.17
2019-03-30T07:22:09.137Z,19.27
2019-03-30T07:24:38.814Z,19.32
2019-03-30T07:27:08.489Z,14.70
2019-03-30T07:29:38.171Z,13.48
2019-03-30T07:32:07.899Z,12.80
2019-03-30T07:34:37.600Z,11.45
2019-03-30T07:37:07.282Z,11.53
2019-03-30T07:39:36.970Z,13.45
2019-03-30T07:42:06.683Z,11.95
2019-03-30T07:44:36.426Z,11.50
2019-03-30T07:47:06.111Z,13.65
2019-03-30T07:49:35.816Z,13.68
2019-03-30T07:52:05.518Z,14.00
2019-03-30T07:54:35.224Z,12.25
2019-03-30T07:57:16.391Z,15.05
2019-03-30T07:59:36.328Z,13.85
2019-03-30T08:02:06.045Z,13.40
2019-03-30T08:04:35.748Z,13.58
2019-03-30T08:07:05.460Z,14.98
2019-03-30T08:09:37.197Z,15.58
2019-03-30T08:12:06.579Z,11.75
2019-03-30T08:14:36.329Z,12.78
2019-03-30T08:17:06.062Z,14.25
2019-03-30T08:19:35.757Z,16.20
2019-03-30T08:22:05.435Z,12.05
2019-03-30T08:24:35.190Z,13.95
2019-03-30T08:27:05.031Z,14.20
2019-03-30T08:29:37.570Z,15.43
2019-03-30T08:32:07.451Z,15.13
2019-03-30T08:34:37.307Z,15.15
2019-03-30T08:37:07.155Z,15.05
2019-03-30T08:39:37.060Z,14.63
2019-03-30T08:42:06.887Z,13.93
2019-03-30T08:44:36.822Z,17.10
2019-03-30T08:47:06.740Z,15.38
2019-03-30T08:49:36.668Z,14.75
2019-03-30T08:52:06.599Z,15.60
2019-03-30T08:54:36.400Z,12.93
2019-03-30T08:57:06.252Z,17.32
2019-03-30T08:59:36.082Z,16.45
2019-03-30T09:02:05.912Z,14.75
2019-03-30T09:04:35.806Z,15.65
2019-03-30T09:07:06.136Z,15.05
2019-03-30T09:09:35.958Z,15.35
2019-03-30T09:12:05.642Z,13.68
2019-03-30T09:14:35.355Z,16.10
2019-03-30T09:17:05.106Z,14.18
2019-03-30T09:19:34.789Z,14.60
2019-03-30T09:22:04.854Z,15.18
2019-03-30T09:24:34.705Z,18.10
2019-03-30T09:27:04.590Z,17.05
2019-03-30T09:29:34.421Z,15.38
2019-03-30T09:32:14.341Z,16.55
2019-03-30T09:34:35.796Z,13.93
2019-03-30T09:37:05.559Z,18.37
2019-03-30T09:39:35.362Z,15.48
2019-03-30T09:42:05.135Z,12.88
2019-03-30T09:44:34.924Z,16.50
2019-03-30T09:47:04.643Z,16.20
2019-03-30T09:49:34.459Z,14.20
2019-03-30T09:52:04.220Z,18.87
2019-03-30T09:54:34.056Z,17.98
2019-03-30T09:57:03.832Z,18.23
2019-03-30T09:59:33.647Z,15.15
2019-03-30T10:02:03.435Z,17.87
2019-03-30T10:04:33.254Z,15.43
2019-03-30T10:07:03.058Z,17.55
2019-03-30T10:09:32.860Z,20.52
2019-03-30T10:12:02.974Z,16.30
2019-03-30T10:14:32.808Z,18.90
2019-03-30T10:17:02.614Z,19.55
2019-03-30T10:19:32.451Z,19.23
2019-03-30T10:22:02.350Z,16.65
2019-03-30T10:24:38.357Z,19.45
2019-03-30T10:27:03.701Z,16.25
2019-03-30T10:29:33.457Z,18.75
2019-03-30T10:32:03.259Z,18.60
2019-03-30T10:34:32.997Z,16.23
2019-03-30T10:37:02.781Z,18.62
2019-03-30T10:39:32.546Z,19.32
2019-03-30T10:42:02.277Z,18.92
2019-03-30T10:44:32.061Z,15.85
2019-03-30T10:47:01.916Z,17.42
2019-03-30T10:49:31.711Z,18.12
2019-03-30T10:52:01.475Z,18.20
2019-03-30T10:54:31.326Z,17.48
2019-03-30T10:57:01.153Z,19.00
2019-03-30T10:59:30.937Z,21.50
2019-03-30T11:02:00.691Z,18.23
2019-03-30T11:04:32.445Z,15.98
2019-03-30T11:07:02.810Z,17.48
2019-03-30T11:09:32.600Z,18.15
2019-03-30T11:12:05.606Z,19.48
2019-03-30T11:14:35.392Z,17.80
2019-03-30T11:17:05.172Z,17.25
2019-03-30T11:19:34.929Z,15.38
2019-03-30T11:22:03.596Z,17.60
2019-03-30T11:24:33.498Z,15.88
2019-03-30T11:27:03.296Z,15.43
2019-03-30T11:29:33.099Z,17.52
2019-03-30T11:32:02.899Z,13.53
2019-03-30T11:34:32.653Z,15.32
2019-03-30T11:37:02.545Z,15.72
2019-03-30T11:39:32.397Z,15.03
2019-03-30T11:42:04.436Z,12.20
2019-03-30T11:44:34.327Z,17.60
2019-03-30T11:47:04.043Z,15.63
2019-03-30T11:49:33.757Z,13.28
2019-03-30T11:52:03.594Z,15.20
2019-03-30T11:54:33.639Z,14.43
2019-03-30T11:57:03.785Z,16.30
2019-03-30T11:59:33.844Z,15.72
2019-03-30T12:02:07.587Z,17.45
2019-03-30T12:04:37.294Z,12.43
2019-03-30T12:07:07.089Z,13.68
2019-03-30T12:09:36.973Z,14.03
2019-03-30T12:12:06.938Z,15.03
2019-03-30T12:14:36.736Z,13.93
2019-03-30T12:17:06.570Z,15.00
2019-03-30T12:19:36.428Z,11.65
2019-03-30T12:22:06.222Z,10.55
2019-03-30T12:24:36.082Z,10.50
2019-03-30T12:27:05.812Z,10.82
2019-03-30T12:29:35.576Z,9.93
2019-03-30T12:32:05.398Z,8.53
2019-03-30T12:34:35.136Z,11.25
2019-03-30T12:37:04.895Z,11.57
2019-03-30T12:39:35.961Z,11.40
2019-03-30T12:42:05.750Z,10.13
2019-03-30T12:44:35.542Z,13.58
2019-03-30T12:47:05.307Z,12.93
2019-03-30T12:49:35.223Z,12.03
2019-03-30T12:52:05.010Z,12.05
2019-03-30T12:54:35.122Z,10.50
2019-03-30T12:57:06.457Z,8.78
2019-03-30T12:59:36.386Z,11.65
2019-03-30T13:02:11.193Z,11.78
2019-03-30T13:04:41.145Z,9.95
2019-03-30T13:07:10.829Z,9.68
2019-03-30T13:09:40.849Z,10.32
2019-03-30T13:12:10.718Z,9.48
2019-03-30T13:14:43.379Z,10.03
2019-03-30T13:17:13.182Z,9.35
2019-03-30T13:19:42.975Z,11.00
2019-03-30T13:22:12.968Z,9.98
2019-03-30T13:24:42.789Z,10.75
2019-03-30T13:27:13.082Z,11.65
2019-03-30T13:29:45.535Z,11.90
2019-03-30T13:32:15.280Z,13.60
2019-03-30T13:34:45.118Z,15.30
2019-03-30T13:37:20.024Z,11.68
2019-03-30T13:39:49.831Z,11.43
2019-03-30T13:42:19.626Z,13.53
2019-03-30T13:45:10.387Z,10.05
2019-03-30T13:47:42.253Z,14.63
2019-03-30T13:50:12.123Z,12.43
2019-03-30T13:52:42.201Z,11.97
2019-03-30T13:55:12.112Z,13.90
2019-03-30T13:57:41.934Z,12.43
2019-03-30T14:00:12.045Z,13.85
2019-03-30T14:02:44.051Z,13.22
2019-03-30T14:05:24.621Z,12.23
2019-03-30T14:07:57.850Z,14.65
2019-03-30T14:10:27.765Z,14.03
2019-03-30T14:12:57.565Z,13.03
2019-03-30T14:15:27.562Z,11.25
2019-03-30T14:17:58.455Z,12.10
2019-03-30T14:20:30.875Z,13.30
2019-03-30T14:23:00.775Z,11.15
2019-03-30T14:25:30.615Z,10.32
2019-03-30T14:28:00.301Z,9.08
2019-03-30T14:30:29.965Z,10.68
2019-03-30T14:32:59.670Z,11.60
2019-03-30T14:35:29.330Z,8.73
2019-03-30T14:37:59.020Z,8.80
2019-03-30T14:40:28.693Z,8.63
2019-03-30T14:42:58.339Z,10.10
2019-03-30T14:45:28.031Z,9.88
2019-03-30T14:47:58.170Z,9.15
2019-03-30T14:50:28.059Z,9.90
2019-03-30T14:52:57.727Z,10.32
2019-03-30T14:55:27.411Z,10.23
2019-03-30T14:57:57.090Z,10.75
2019-03-30T15:00:26.924Z,11.28
2019-03-30T15:02:56.754Z,12.80
2019-03-30T15:05:26.515Z,11.40
2019-03-30T15:07:56.184Z,11.85
2019-03-30T15:10:25.864Z,11.78
2019-03-30T15:12:55.515Z,13.43
2019-03-30T15:15:25.244Z,13.22
2019-03-30T15:17:54.943Z,13.20
2019-03-30T15:20:24.632Z,11.97
2019-03-30T15:22:54.309Z,13.80
2019-03-30T15:25:24.085Z,12.55
2019-03-30T15:27:53.758Z,12.15
2019-03-30T15:30:23.451Z,11.65
2019-03-30T15:32:53.153Z,12.98
2019-03-30T15:35:22.810Z,12.98
2019-03-30T15:37:52.498Z,12.35
2019-03-30T15:40:22.354Z,12.98
2019-03-30T15:42:52.089Z,13.53
2019-03-30T15:45:21.857Z,11.93
2019-03-30T15:47:51.534Z,13.78
2019-03-30T15:50:21.287Z,14.47
2019-03-30T15:52:50.971Z,13.58
2019-03-30T15:55:20.756Z,13.38
2019-03-30T15:57:50.392Z,13.13
2019-03-30T16:00:20.263Z,14.98
2019-03-30T16:02:50.891Z,14.70
2019-03-30T16:05:20.593Z,15.43
2019-03-30T16:07:50.307Z,14.30
2019-03-30T16:10:19.999Z,14.30
2019-03-30T16:12:49.734Z,14.07
2019-03-30T16:15:19.467Z,12.82
2019-03-30T16:17:49.139Z,14.55
2019-03-30T16:20:18.914Z,14.90
2019-03-30T16:22:48.601Z,14.63
2019-03-30T16:25:18.306Z,13.65
2019-03-30T16:27:48.100Z,12.35
2019-03-30T16:30:18.505Z,14.93
2019-03-30T16:32:48.172Z,14.07
2019-03-30T16:35:17.852Z,16.57
2019-03-30T16:37:47.605Z,14.65
2019-03-30T16:40:17.332Z,14.20
2019-03-30T16:42:47.062Z,16.48
2019-03-30T16:45:16.960Z,14.65
2019-03-30T16:47:46.672Z,15.38
2019-03-30T16:50:17.506Z,15.40
2019-03-30T16:52:47.248Z,16.90
2019-03-30T16:55:16.987Z,15.30
2019-03-30T16:57:46.705Z,14.75
2019-03-30T17:00:17.071Z,15.85
2019-03-30T17:02:46.767Z,15.65
2019-03-30T17:05:16.549Z,16.93
2019-03-30T17:07:46.237Z,14.68
2019-03-30T17:10:16.031Z,15.35
2019-03-30T17:12:45.755Z,14.15
2019-03-30T17:15:15.463Z,13.68
2019-03-30T17:17:45.202Z,15.98
2019-03-30T17:20:14.931Z,15.48
2019-03-30T17:22:44.659Z,15.65
2019-03-30T17:25:14.562Z,15.38
2019-03-30T17:27:57.603Z,14.85
2019-03-30T17:30:16.362Z,15.65
2019-03-30T17:32:46.116Z,18.10
2019-03-30T17:35:15.905Z,12.28
2019-03-30T17:37:45.614Z,17.92
2019-03-30T17:40:15.422Z,15.58
2019-03-30T17:42:45.260Z,14.95
2019-03-30T17:45:15.276Z,14.60
2019-03-30T17:47:45.050Z,14.85
2019-03-30T17:50:14.968Z,16.82
2019-03-30T17:52:44.723Z,15.88
2019-03-30T17:55:14.429Z,15.23
2019-03-30T17:57:44.141Z,14.55
2019-03-30T18:00:16.104Z,13.98
2019-03-30T18:02:45.778Z,17.85
2019-03-30T18:05:15.524Z,15.65
2019-03-30T18:07:45.305Z,14.43
2019-03-30T18:10:15.512Z,16.10
2019-03-30T18:12:45.279Z,14.87
2019-03-30T18:15:15.181Z,15.75
2019-03-30T18:17:44.897Z,15.08
2019-03-30T18:20:16.112Z,15.23
2019-03-30T18:22:45.825Z,16.10
2019-03-30T18:25:15.654Z,17.82
2019-03-30T18:27:45.368Z,18.32
2019-03-30T18:30:15.185Z,17.00
2019-03-30T18:32:44.979Z,17.52
2019-03-30T18:35:14.687Z,14.83
2019-03-30T18:37:44.468Z,17.00
2019-03-30T18:40:27.001Z,16.62
2019-03-30T18:42:56.871Z,17.48
2019-03-30T18:45:27.929Z,18.12
2019-03-30T18:48:10.667Z,16.60
2019-03-30T18:50:41.365Z,14.53
2019-03-30T18:53:11.222Z,15.68
2019-03-30T18:55:40.928Z,17.23
2019-03-30T18:58:10.656Z,14.55
2019-03-30T19:00:40.308Z,15.98
2019-03-30T19:03:10.053Z,17.00
2019-03-30T19:05:39.740Z,17.77
2019-03-30T19:08:09.922Z,18.40
2019-03-30T19:10:39.750Z,15.55
2019-03-30T19:13:09.438Z,18.32
2019-03-30T19:15:39.161Z,15.83
2019-03-30T19:18:08.902Z,17.12
2019-03-30T19:20:38.964Z,17.70
2019-03-30T19:23:08.738Z,17.77
2019-03-30T19:25:38.531Z,16.42
2019-03-30T19:28:08.248Z,17.85
2019-03-30T19:30:38.061Z,20.80
2019-03-30T19:33:07.866Z,15.45
2019-03-30T19:35:37.566Z,18.45
2019-03-30T19:38:10.727Z,15.28
2019-03-30T19:40:38.849Z,19.80
2019-03-30T19:43:08.547Z,19.50
2019-03-30T19:45:38.257Z,19.45
2019-03-30T19:48:07.985Z,17.30
2019-03-30T19:50:37.742Z,18.12
2019-03-30T19:53:07.429Z,17.62
2019-03-30T19:55:37.111Z,19.52
2019-03-30T19:58:06.808Z,19.85
2019-03-30T20:00:38.741Z,21.20
2019-03-30T20:03:08.490Z,20.37
2019-03-30T20:05:38.171Z,20.77
2019-03-30T20:08:12.306Z,19.55
2019-03-30T20:10:39.440Z,18.77
2019-03-30T20:13:09.417Z,21.37
2019-03-30T20:15:39.095Z,22.67
2019-03-30T20:18:08.776Z,19.60
2019-03-30T20:20:38.458Z,23.07
2019-03-30T20:23:08.212Z,19.30
2019-03-30T20:25:38.070Z,21.97
2019-03-30T20:28:07.759Z,18.32
2019-03-30T20:30:37.452Z,22.35
2019-03-30T20:33:07.324Z,22.00
2019-03-30T20:35:37.067Z,21.07
2019-03-30T20:38:06.800Z,21.37
2019-03-30T20:40:36.560Z,24.23
2019-03-30T20:43:06.661Z,22.30
2019-03-30T20:45:36.345Z,23.45
2019-03-30T20:48:06.198Z,18.67
2019-03-30T20:50:35.971Z,21.55
2019-03-30T20:53:05.675Z,23.55
2019-03-30T20:55:35.341Z,19.85
2019-03-30T20:58:05.233Z,20.70
2019-03-30T21:00:34.952Z,21.10
2019-03-30T21:03:04.694Z,21.48
2019-03-30T21:05:34.395Z,22.27
2019-03-30T21:08:04.208Z,23.00
2019-03-30T21:10:34.050Z,22.17
2019-03-30T21:13:03.780Z,25.10
2019-03-30T21:15:33.460Z,23.73
2019-03-30T21:18:03.220Z,22.98
2019-03-30T21:20:33.032Z,24.67
2019-03-30T21:23:02.787Z,19.90
2019-03-30T21:25:32.700Z,24.47
2019-03-30T21:28:02.398Z,21.82
2019-03-30T21:30:32.230Z,21.42
2019-03-30T21:33:01.948Z,20.37
2019-03-30T21:35:31.708Z,20.40
2019-03-30T21:38:01.430Z,21.50
2019-03-30T21:40:31.130Z,23.98
2019-03-30T21:43:00.854Z,23.95
2019-03-30T21:45:30.590Z,22.25
2019-03-30T21:48:00.327Z,23.05
2019-03-30T21:50:30.046Z,24.35
2019-03-30T21:52:59.844Z,24.45
2019-03-30T21:55:29.546Z,26.45
2019-03-30T21:57:59.263Z,23.05
2019-03-30T22:00:36.703Z,23.15
2019-03-30T22:03:07.012Z,23.80
2019-03-30T22:05:36.885Z,23.32
2019-03-30T22:08:06.873Z,24.60
2019-03-30T22:10:36.586Z,24.57
2019-03-30T22:13:07.090Z,25.23
2019-03-30T22:15:36.825Z,21.52
2019-03-30T22:18:06.571Z,22.27
2019-03-30T22:20:36.307Z,19.32
2019-03-30T22:23:05.966Z,25.15
2019-03-30T22:25:35.666Z,21.37
2019-03-30T22:28:05.416Z,23.80
2019-03-30T22:30:35.091Z,25.10
2019-03-30T22:33:04.821Z,24.23
2019-03-30T22:35:34.534Z,23.70
2019-03-30T22:38:04.245Z,21.00
2019-03-30T22:40:33.912Z,19.55
2019-03-30T22:43:03.640Z,22.67
2019-03-30T22:45:33.306Z,30.00
2019-03-30T22:48:02.968Z,23.00
2019-03-30T22:50:32.654Z,25.62
2019-03-30T22:53:02.598Z,24.70
2019-03-30T22:55:32.290Z,22.87
2019-03-30T22:58:01.981Z,25.10
2019-03-30T23:00:53.676Z,24.60
2019-03-30T23:03:23.414Z,27.27
2019-03-30T23:05:53.165Z,25.32
2019-03-30T23:08:22.883Z,23.77
2019-03-30T23:10:52.553Z,25.95
2019-03-30T23:13:22.405Z,31.33
2019-03-30T23:15:52.236Z,26.10
2019-03-30T23:18:21.909Z,26.62
2019-03-30T23:20:51.619Z,30.40
2019-03-30T23:23:21.312Z,27.67
2019-03-30T23:25:51.017Z,21.97
2019-03-30T23:28:20.699Z,27.40
2019-03-30T23:30:54.575Z,23.45
2019-03-30T23:33:21.932Z,29.18
2019-03-30T23:35:51.788Z,25.70
2019-03-30T23:38:21.540Z,25.65
2019-03-30T23:40:51.216Z,24.35
2019-03-30T23:43:20.934Z,27.32
2019-03-30T23:45:50.636Z,19.75
2019-03-30T23:48:20.362Z,25.97
2019-03-30T23:50:50.050Z,28.52
2019-03-30T23:53:20.095Z,30.70
2019-03-30T23:55:49.883Z,28.92
2019-03-30T23:58:19.663Z,27.40
